createdAt,value
2022-11-24T04:49:47.644Z,3.44
2022-11-24T04:52:50.752Z,3.39
2022-11-24T04:55:53.178Z,3.40
2022-11-24T04:58:55.895Z,3.39
2022-11-24T05:01:58.617Z,3.41
2022-11-24T05:05:01.430Z,3.40
2022-11-24T05:08:04.276Z,3.32
2022-11-24T05:11:07.470Z,3.37
2022-11-24T05:14:10.233Z,3.33
2022-11-24T05:17:12.974Z,3.37
2022-11-24T05:20:15.539Z,3.31
2022-11-24T05:23:18.288Z,3.37
2022-11-24T05:26:20.740Z,3.41
2022-11-24T05:29:23.596Z,3.45
2022-11-24T05:32:26.309Z,3.54
2022-11-24T05:35:29.153Z,3.51
2022-11-24T05:38:31.828Z,3.53
2022-11-24T05:41:34.723Z,3.56
2022-11-24T05:44:37.192Z,3.58
2022-11-24T05:47:41.479Z,3.62
2022-11-24T05:50:44.009Z,3.70
2022-11-24T05:53:46.755Z,3.70
2022-11-24T05:56:49.204Z,3.78
2022-11-24T05:59:51.975Z,3.79
2022-11-24T06:02:54.744Z,3.81
2022-11-24T06:05:57.802Z,3.80
2022-11-24T06:09:00.271Z,3.85
2022-11-24T06:12:03.912Z,3.82
2022-11-24T06:15:06.942Z,3.83
2022-11-24T06:18:09.792Z,3.82
2022-11-24T06:21:12.473Z,3.86
2022-11-24T06:24:15.203Z,3.90
2022-11-24T06:27:18.373Z,3.97
2022-11-24T06:30:21.280Z,3.90
2022-11-24T06:33:23.702Z,3.97
2022-11-24T06:36:27.067Z,3.91
2022-11-24T06:39:29.588Z,3.98
2022-11-24T06:42:32.834Z,4.01
2022-11-24T06:45:35.399Z,4.01
2022-11-24T06:48:38.904Z,4.06
2022-11-24T06:51:42.298Z,4.06
2022-11-24T06:54:45.371Z,4.10
2022-11-24T06:57:47.942Z,4.12
2022-11-24T07:00:50.714Z,4.14
2022-11-24T07:03:54.866Z,4.18
2022-11-24T07:06:57.628Z,4.22
2022-11-24T07:10:00.215Z,4.23
2022-11-24T07:13:08.037Z,4.21
2022-11-24T07:19:33.374Z,4.29
2022-11-24T07:22:36.294Z,4.30
2022-11-24T07:25:39.551Z,4.30
2022-11-24T07:28:42.305Z,4.30
2022-11-24T07:31:46.024Z,4.41
2022-11-24T07:34:48.726Z,4.37
2022-11-24T07:37:55.315Z,4.49
2022-11-24T07:41:06.167Z,4.53
2022-11-24T07:44:09.030Z,4.57
2022-11-24T07:47:11.655Z,4.65
2022-11-24T07:50:14.499Z,4.65
2022-11-24T07:53:17.569Z,4.64
2022-11-24T07:56:20.349Z,4.65
2022-11-24T07:59:22.758Z,4.67
2022-11-24T08:02:25.708Z,4.69
2022-11-24T08:05:28.424Z,4.73
2022-11-24T08:08:33.410Z,4.75
2022-11-24T08:11:36.792Z,4.73
2022-11-24T08:14:39.263Z,4.72
2022-11-24T08:17:42.059Z,4.75
2022-11-24T08:20:44.697Z,4.80
2022-11-24T08:23:47.434Z,4.86
2022-11-24T08:26:49.898Z,4.87
2022-11-24T08:29:53.319Z,4.93
2022-11-24T08:32:58.333Z,4.94
2022-11-24T08:36:23.286Z,4.90
2022-11-24T08:39:25.916Z,4.98
2022-11-24T08:42:29.058Z,5.03
2022-11-24T08:45:34.294Z,5.05
2022-11-24T08:48:40.142Z,5.08
2022-11-24T08:51:43.404Z,5.07
2022-11-24T08:54:46.891Z,5.25
2022-11-24T08:57:49.364Z,5.30
2022-11-24T09:00:52.119Z,5.43
2022-11-24T09:03:55.230Z,5.42
2022-11-24T09:06:58.499Z,5.54
2022-11-24T09:10:01.139Z,5.58
2022-11-24T09:13:04.339Z,5.57
2022-11-24T09:16:10.627Z,5.49
2022-11-24T09:19:13.473Z,5.46
2022-11-24T09:22:16.203Z,5.42
2022-11-24T09:25:18.982Z,5.50
2022-11-24T09:28:21.425Z,5.57
2022-11-24T09:31:26.948Z,5.52
2022-11-24T09:34:29.535Z,5.72
2022-11-24T09:37:33.091Z,5.88
2022-11-24T09:40:35.781Z,5.92
2022-11-24T09:44:03.359Z,6.19
2022-11-24T09:47:08.896Z,6.53
2022-11-24T09:50:20.495Z,6.67
2022-11-24T09:53:36.300Z,6.82
2022-11-24T09:56:41.669Z,6.72
2022-11-24T09:59:44.215Z,6.56
2022-11-24T10:02:49.230Z,6.44
2022-11-24T10:05:52.417Z,6.53
2022-11-24T10:09:04.938Z,6.31
2022-11-24T10:12:41.464Z,6.13
2022-11-24T10:15:53.133Z,6.04
2022-11-24T10:19:36.373Z,5.94
2022-11-24T10:22:45.392Z,5.84
2022-11-24T10:25:58.296Z,5.83
2022-11-24T10:29:06.355Z,5.77
2022-11-24T10:32:18.914Z,5.75
2022-11-24T10:35:45.943Z,5.68
2022-11-24T10:38:56.659Z,5.74
2022-11-24T10:42:03.218Z,5.86
2022-11-24T10:45:19.262Z,5.85
2022-11-24T10:48:26.428Z,6.03
2022-11-24T10:52:07.734Z,6.08
2022-11-24T10:55:10.906Z,6.17
2022-11-24T10:58:17.088Z,6.16
2022-11-24T11:01:33.263Z,6.23
2022-11-24T11:04:36.300Z,6.21
2022-11-24T11:07:38.893Z,6.28
2022-11-24T11:10:43.689Z,6.39
2022-11-24T11:14:01.547Z,6.47
2022-11-24T11:17:28.023Z,6.55
2022-11-24T11:20:32.711Z,6.66
2022-11-24T11:23:37.055Z,6.58
2022-11-24T11:26:39.712Z,6.71
2022-11-24T11:36:51.371Z,6.89
2022-11-24T11:39:55.364Z,6.91
2022-11-24T11:43:03.391Z,7.06
2022-11-24T11:46:16.380Z,7.06
2022-11-24T11:49:19.419Z,7.26
2022-11-24T11:52:57.746Z,7.26
2022-11-24T11:56:21.434Z,7.31
2022-11-24T11:59:55.247Z,7.41
2022-11-24T12:03:28.517Z,7.53
2022-11-24T12:06:52.264Z,7.39
2022-11-24T12:09:58.244Z,7.65
2022-11-24T12:13:24.703Z,8.02
2022-11-24T12:16:52.245Z,8.22
2022-11-24T12:20:17.348Z,9.16
2022-11-24T12:23:57.617Z,10.14
2022-11-24T12:27:00.395Z,10.11
2022-11-24T12:30:12.963Z,9.33
2022-11-24T12:34:14.849Z,8.44
2022-11-24T12:37:17.604Z,7.81
2022-11-24T12:40:43.656Z,7.44
2022-11-24T12:43:56.072Z,7.23
2022-11-24T12:48:00.703Z,7.07
2022-11-24T12:51:06.553Z,7.39
2022-11-24T12:54:21.115Z,7.40
2022-11-24T12:57:33.355Z,7.08
2022-11-24T13:00:47.025Z,6.87
2022-11-24T13:03:58.710Z,6.76
2022-11-24T13:07:10.709Z,6.70
2022-11-24T13:13:59.721Z,6.70
2022-11-24T13:20:44.626Z,6.89
2022-11-24T13:24:01.022Z,6.95
2022-11-24T13:27:16.239Z,6.98
2022-11-24T13:30:34.167Z,6.97
2022-11-24T13:33:37.687Z,6.94
2022-11-24T13:36:53.104Z,7.07
2022-11-24T13:40:07.958Z,7.12
2022-11-24T13:43:10.404Z,7.18
2022-11-24T13:46:56.619Z,7.23
2022-11-24T13:50:05.846Z,7.14
2022-11-24T13:53:45.282Z,7.23
2022-11-24T13:56:47.736Z,7.18
2022-11-24T13:59:50.643Z,7.19
2022-11-24T14:02:58.076Z,7.21
2022-11-24T14:06:02.227Z,7.20
2022-11-24T14:09:35.013Z,7.15
2022-11-24T14:12:37.842Z,7.11
2022-11-24T14:15:40.386Z,7.14
2022-11-24T14:18:48.667Z,7.10
2022-11-24T14:21:51.260Z,7.05
2022-11-24T14:24:57.256Z,6.93
2022-11-24T14:28:00.529Z,6.88
2022-11-24T14:31:20.829Z,6.82
2022-11-24T14:34:26.099Z,6.78
2022-11-24T14:37:29.008Z,6.65
2022-11-24T14:40:38.023Z,6.58
2022-11-24T14:43:40.827Z,6.59
2022-11-24T14:46:43.734Z,6.55
2022-11-24T14:49:46.662Z,6.50
2022-11-24T14:52:57.016Z,6.47
2022-11-24T14:56:22.850Z,6.39
2022-11-24T14:59:27.936Z,6.37
2022-11-24T15:02:44.739Z,6.34
2022-11-24T15:06:01.046Z,6.29
2022-11-24T15:09:04.606Z,6.28
2022-11-24T15:12:12.576Z,6.21
2022-11-24T15:15:15.258Z,6.21
2022-11-24T15:18:43.719Z,6.17
2022-11-24T15:21:46.733Z,6.14
2022-11-24T15:24:53.418Z,6.13
2022-11-24T15:27:56.655Z,6.11
2022-11-24T15:31:05.064Z,6.08
2022-11-24T15:34:12.750Z,6.04
2022-11-24T15:37:15.237Z,6.02
2022-11-24T15:40:18.574Z,5.94
2022-11-24T15:43:36.543Z,5.89
2022-11-24T15:46:39.983Z,5.85
2022-11-24T15:49:42.505Z,5.73
2022-11-24T15:52:46.823Z,5.67
2022-11-24T15:55:50.452Z,5.68
2022-11-24T15:58:54.267Z,5.69
2022-11-24T16:01:56.837Z,5.57
2022-11-24T16:04:59.679Z,5.49
2022-11-24T16:08:02.387Z,5.40
2022-11-24T16:11:05.415Z,5.34
2022-11-24T16:14:08.112Z,5.38
2022-11-24T16:17:10.919Z,5.33
2022-11-24T16:20:13.884Z,5.26
2022-11-24T16:23:16.656Z,5.18
2022-11-24T16:26:19.516Z,5.22
2022-11-24T16:29:23.774Z,5.23
2022-11-24T16:32:26.331Z,5.20
2022-11-24T16:35:29.045Z,5.23
2022-11-24T16:38:31.947Z,5.26
2022-11-24T16:41:34.774Z,5.26
2022-11-24T16:44:37.555Z,5.18
2022-11-24T16:47:42.108Z,5.11
2022-11-24T16:50:44.583Z,5.05
2022-11-24T16:53:47.901Z,5.12
2022-11-24T16:56:50.383Z,5.10
2022-11-24T16:59:53.399Z,5.03
